Time;durP1;ratioP1;P1;durP2;ratioP2;P2;SDS_P1;SDS_P2;PMS_P1;PMS_P2;Temp;Humidity;BMP_temperature;BMP_pressure;BME280_temperature;BME280_humidity;BME280_pressure;Samples;Min_cycle;Max_cycle;Signal;HPM_P1;HPM_P2
2024/01/18 00:04:22;;;;;;;0.20;0.20;;;;;;;;;;10500237;28;20124;-75
2024/01/18 00:09:26;;;;;;;0.30;0.17;;;;;;;;;;10499724;28;20522;-74
2024/01/18 00:14:30;;;;;;;0.52;0.25;;;;;;;;;;10501912;28;20044;-74
2024/01/18 00:19:33;;;;;;;0.25;0.25;;;;;;;;;;10503693;28;20095;-76
2024/01/18 00:24:37;;;;;;;0.20;0.20;;;;;;;;;;10498907;28;20040;-75
2024/01/18 00:29:40;;;;;;;0.20;0.20;;;;;;;;;;10496086;28;20083;-75
2024/01/18 00:34:42;;;;;;;0.20;0.20;;;;;;;;;;10502963;28;20559;-74
2024/01/18 00:39:46;;;;;;;0.30;0.20;;;;;;;;;;10495101;28;20040;-75
2024/01/18 00:44:49;;;;;;;0.10;0.10;;;;;;;;;;10495501;28;20130;-74
2024/01/18 00:49:51;;;;;;;0.10;0.10;;;;;;;;;;10500025;28;20555;-77
2024/01/18 00:54:56;;;;;;;0.20;0.20;;;;;;;;;;10499594;28;20048;-77
2024/01/18 00:59:58;;;;;;;0.30;0.30;;;;;;;;;;10494378;28;20076;-77
2024/01/18 01:05:01;;;;;;;0.20;0.20;;;;;;;;;;10498430;28;20052;-75
2024/01/18 01:10:05;;;;;;;0.17;0.10;;;;;;;;;;10503102;28;20036;-76
2024/01/18 01:15:09;;;;;;;0.00;0.00;;;;;;;;;;10504192;28;20051;-74
2024/01/18 01:20:12;;;;;;;0.13;0.13;;;;;;;;;;10503561;28;20048;-77
2024/01/18 01:25:17;;;;;;;0.82;0.10;;;;;;;;;;10502503;28;20047;-76
2024/01/18 01:30:21;;;;;;;;;;;;;;;;;;10509246;28;20055;-76
2024/01/18 01:35:24;;;;;;;0.10;0.03;;;;;;;;;;10505974;28;19936;-75
2024/01/18 01:40:28;;;;;;;0.20;0.20;;;;;;;;;;10502782;28;20489;-76
2024/01/18 01:45:31;;;;;;;;;;;;;;;;;;10502616;28;20047;-75
2024/01/18 01:50:35;;;;;;;0.38;0.10;;;;;;;;;;10502417;28;20010;-76
2024/01/18 01:55:39;;;;;;;0.20;0.20;;;;;;;;;;10504429;28;20044;-75
2024/01/18 02:00:43;;;;;;;0.68;0.30;;;;;;;;;;10502153;28;20059;-74
2024/01/18 02:05:46;;;;;;;0.82;0.35;;;;;;;;;;10501047;28;20130;-76
2024/01/18 02:10:51;;;;;;;0.10;0.10;;;;;;;;;;10509435;28;20028;-77
2024/01/18 02:15:54;;;;;;;0.10;0.10;;;;;;;;;;10506493;28;20371;-76
2024/01/18 02:20:57;;;;;;;0.10;0.10;;;;;;;;;;10508948;28;20153;-75
2024/01/18 02:26:01;;;;;;;0.10;0.10;;;;;;;;;;10508962;28;20517;-74
2024/01/18 02:31:05;;;;;;;0.25;0.17;;;;;;;;;;10505007;28;20067;-75
2024/01/18 02:36:08;;;;;;;0.20;0.20;;;;;;;;;;10486624;28;20044;-76
2024/01/18 02:41:12;;;;;;;0.40;0.17;;;;;;;;;;10481032;28;20040;-75
2024/01/18 02:46:16;;;;;;;0.30;0.20;;;;;;;;;;10507137;28;20093;-76
2024/01/18 02:51:19;;;;;;;0.10;0.10;;;;;;;;;;10502066;28;20592;-75
2024/01/18 02:56:23;;;;;;;0.30;0.30;;;;;;;;;;10504830;28;20120;-74
2024/01/18 03:01:26;;;;;;;0.63;0.38;;;;;;;;;;10503682;28;20024;-76
2024/01/18 03:06:29;;;;;;;0.13;0.13;;;;;;;;;;10492285;28;20032;-74
2024/01/18 03:11:33;;;;;;;1.27;0.10;;;;;;;;;;10503178;28;20036;-76
2024/01/18 03:16:42;;;;;;;0.20;0.10;;;;;;;;;;10504509;28;20116;-75
2024/01/18 03:21:45;;;;;;;0.32;0.20;;;;;;;;;;10508899;28;21416;-75
2024/01/18 03:26:50;;;;;;;0.10;0.10;;;;;;;;;;10507391;28;20044;-76
2024/01/18 03:31:53;;;;;;;0.40;0.20;;;;;;;;;;10503005;28;20822;-75
2024/01/18 03:36:56;;;;;;;0.10;0.10;;;;;;;;;;10495192;28;20048;-74
2024/01/18 03:42:00;;;;;;;0.00;0.00;;;;;;;;;;10500417;28;20036;-75
2024/01/18 03:47:03;;;;;;;0.25;0.15;;;;;;;;;;10503105;28;20051;-75
2024/01/18 03:52:06;;;;;;;0.15;0.13;;;;;;;;;;10495828;28;20060;-74
2024/01/18 03:57:10;;;;;;;0.32;0.28;;;;;;;;;;10503834;28;20370;-75
2024/01/18 04:02:13;;;;;;;0.22;0.20;;;;;;;;;;10499584;28;20056;-75
2024/01/18 04:07:18;;;;;;;0.10;0.10;;;;;;;;;;10499107;28;20052;-74
2024/01/18 04:12:22;;;;;;;0.17;0.17;;;;;;;;;;10501138;28;20496;-77
2024/01/18 04:17:25;;;;;;;0.10;0.10;;;;;;;;;;10495944;28;20527;-75
2024/01/18 04:22:28;;;;;;;0.20;0.15;;;;;;;;;;10499067;28;20544;-74
2024/01/18 04:27:32;;;;;;;0.10;0.10;;;;;;;;;;10498913;28;20563;-75
2024/01/18 04:32:35;;;;;;;0.10;0.10;;;;;;;;;;10500491;28;20062;-76
2024/01/18 04:37:38;;;;;;;0.30;0.17;;;;;;;;;;10500441;28;20462;-75
2024/01/18 04:42:43;;;;;;;0.07;0.07;;;;;;;;;;10499697;28;20047;-75
2024/01/18 04:47:46;;;;;;;;;;;;;;;;;;10498873;28;20097;-77
2024/01/18 04:52:50;;;;;;;0.10;0.10;;;;;;;;;;10510498;28;20053;-75
2024/01/18 04:57:54;;;;;;;0.20;0.17;;;;;;;;;;10510244;28;20166;-76
2024/01/18 05:02:56;;;;;;;0.10;0.10;;;;;;;;;;10501990;28;20060;-75
2024/01/18 05:07:59;;;;;;;0.17;0.17;;;;;;;;;;10509521;28;20042;-75
2024/01/18 05:13:03;;;;;;;1.25;0.38;;;;;;;;;;10505227;28;20109;-75
2024/01/18 05:18:07;;;;;;;;;;;;;;;;;;10504656;28;20070;-74
2024/01/18 05:23:10;;;;;;;0.10;0.10;;;;;;;;;;10503116;28;19990;-75
2024/01/18 05:28:14;;;;;;;1.35;0.25;;;;;;;;;;10503850;28;20392;-75
2024/01/18 05:33:18;;;;;;;0.20;0.20;;;;;;;;;;10492678;28;20139;-74
2024/01/18 05:38:20;;;;;;;;;;;;;;;;;;10503997;28;20051;-74
2024/01/18 05:43:25;;;;;;;1.27;0.50;;;;;;;;;;10506350;28;19930;-74
2024/01/18 05:48:27;;;;;;;0.75;0.20;;;;;;;;;;10486596;28;20041;-75
2024/01/18 05:53:30;;;;;;;0.32;0.15;;;;;;;;;;10504174;28;20043;-75
2024/01/18 05:58:34;;;;;;;0.05;0.05;;;;;;;;;;10505241;28;20067;-74
2024/01/18 06:03:40;;;;;;;0.68;0.40;;;;;;;;;;10501106;28;20056;-74
2024/01/18 06:08:43;;;;;;;0.10;0.10;;;;;;;;;;10496356;28;20059;-75
2024/01/18 06:13:47;;;;;;;0.30;0.30;;;;;;;;;;10500618;28;20424;-75
2024/01/18 06:18:50;;;;;;;;;;;;;;;;;;10507592;28;20066;-74
2024/01/18 06:23:53;;;;;;;1.23;0.40;;;;;;;;;;10498867;28;19931;-76
2024/01/18 06:28:57;;;;;;;0.68;0.45;;;;;;;;;;10500835;28;20056;-74
2024/01/18 06:34:00;;;;;;;0.77;0.50;;;;;;;;;;10503744;28;20464;-75
2024/01/18 06:39:03;;;;;;;1.90;0.70;;;;;;;;;;10508927;28;20082;-75
2024/01/18 06:44:07;;;;;;;0.65;0.50;;;;;;;;;;10500719;28;20048;-74
2024/01/18 06:49:10;;;;;;;0.60;0.47;;;;;;;;;;10505881;28;20101;-75
2024/01/18 06:54:13;;;;;;;2.08;0.60;;;;;;;;;;10508899;28;20040;-75
2024/01/18 06:59:19;;;;;;;0.77;0.50;;;;;;;;;;10507192;28;20050;-75
2024/01/18 07:04:22;;;;;;;1.73;0.70;;;;;;;;;;10497842;28;20401;-74
2024/01/18 07:09:25;;;;;;;1.13;0.80;;;;;;;;;;10503124;28;20044;-74
2024/01/18 07:14:29;;;;;;;1.05;0.80;;;;;;;;;;10498791;28;20032;-75
2024/01/18 07:19:36;;;;;;;0.68;0.63;;;;;;;;;;10501451;28;20120;-74
2024/01/18 07:24:42;;;;;;;2.35;0.88;;;;;;;;;;10510445;28;20046;-74
2024/01/18 07:29:49;;;;;;;1.92;0.90;;;;;;;;;;10545994;27;20039;-75
2024/01/18 07:34:51;;;;;;;1.27;0.80;;;;;;;;;;10540891;28;20409;-75
2024/01/18 07:39:54;;;;;;;0.82;0.60;;;;;;;;;;10542325;27;20046;-75
2024/01/18 07:44:58;;;;;;;0.57;0.40;;;;;;;;;;10542617;27;20043;-75
2024/01/18 07:50:01;;;;;;;2.67;0.90;;;;;;;;;;10544879;28;20055;-75
2024/01/18 07:55:25;;;;;;;2.45;0.95;;;;;;;;;;10542381;27;20046;-74
2024/01/18 08:00:29;;;;;;;0.75;0.50;;;;;;;;;;10540864;28;20040;-76
2024/01/18 08:05:32;;;;;;;0.75;0.35;;;;;;;;;;10542789;27;20134;-74
2024/01/18 08:10:35;;;;;;;1.20;0.90;;;;;;;;;;10543032;28;20048;-74
2024/01/18 08:15:41;;;;;;;0.20;0.10;;;;;;;;;;10541671;28;20054;-73
2024/01/18 08:20:43;;;;;;;3.30;1.40;;;;;;;;;;10560191;27;20171;-74
2024/01/18 08:25:46;;;;;;;1.70;0.90;;;;;;;;;;10539016;28;20130;-75
2024/01/18 08:30:51;;;;;;;1.65;0.82;;;;;;;;;;10544594;28;20047;-75
2024/01/18 08:35:54;;;;;;;6.15;1.88;;;;;;;;;;10536604;28;20119;-75
2024/01/18 08:40:58;;;;;;;2.10;0.77;;;;;;;;;;10540393;28;20400;-75
2024/01/18 08:46:06;;;;;;;2.70;0.60;;;;;;;;;;10538835;28;20044;-74
2024/01/18 08:51:13;;;;;;;0.73;0.55;;;;;;;;;;10538839;28;20036;-74
2024/01/18 08:56:16;;;;;;;1.60;0.65;;;;;;;;;;10551133;28;20420;-75
2024/01/18 09:01:25;;;;;;;6.50;1.88;;;;;;;;;;10540552;28;20040;-76
2024/01/18 09:06:27;;;;;;;;;;;;;;;;;;10541001;28;20138;-75
2024/01/18 09:11:30;;;;;;;1.30;0.73;;;;;;;;;;10539653;28;20011;-75
2024/01/18 09:16:34;;;;;;;2.30;0.90;;;;;;;;;;10542241;28;20052;-75
2024/01/18 09:21:40;;;;;;;1.85;0.65;;;;;;;;;;10538587;28;20058;-75
2024/01/18 09:26:43;;;;;;;0.90;0.60;;;;;;;;;;10532197;28;20428;-75
2024/01/18 09:31:47;;;;;;;0.90;0.63;;;;;;;;;;10539182;28;20126;-75
2024/01/18 09:36:49;;;;;;;;;;;;;;;;;;10535867;28;20040;-75
2024/01/18 09:41:53;;;;;;;0.40;0.40;;;;;;;;;;10548175;28;20038;-74
2024/01/18 09:46:58;;;;;;;0.08;0.08;;;;;;;;;;10543380;27;20618;-75
2024/01/18 09:52:01;;;;;;;0.20;0.20;;;;;;;;;;10544940;28;20040;-76
2024/01/18 09:57:06;;;;;;;0.63;0.50;;;;;;;;;;10550127;27;20100;-76
2024/01/18 10:02:11;;;;;;;0.57;0.30;;;;;;;;;;10551391;27;20374;-76
2024/01/18 10:07:14;;;;;;;0.25;0.22;;;;;;;;;;10544232;27;20040;-76
2024/01/18 10:12:17;;;;;;;0.30;0.30;;;;;;;;;;10550218;27;20040;-75
2024/01/18 10:17:22;;;;;;;0.30;0.28;;;;;;;;;;10529021;27;20044;-77
2024/01/18 10:22:26;;;;;;;0.90;0.43;;;;;;;;;;10541823;27;20043;-75
2024/01/18 10:27:29;;;;;;;0.90;0.50;;;;;;;;;;10541772;27;20150;-76
2024/01/18 10:32:33;;;;;;;1.15;0.30;;;;;;;;;;10539780;28;20116;-77
2024/01/18 10:37:36;;;;;;;;;;;;;;;;;;10543783;27;20061;-78
2024/01/18 10:42:39;;;;;;;0.52;0.43;;;;;;;;;;10547652;28;19927;-76
2024/01/18 10:47:44;;;;;;;1.27;0.80;;;;;;;;;;10541206;27;20032;-75
2024/01/18 10:52:47;;;;;;;0.17;0.17;;;;;;;;;;10547301;28;20059;-75
2024/01/18 10:57:51;;;;;;;0.95;0.47;;;;;;;;;;10546735;27;20036;-75
2024/01/18 11:02:57;;;;;;;0.50;0.50;;;;;;;;;;10544310;27;20483;-76
2024/01/18 11:08:00;;;;;;;1.20;0.47;;;;;;;;;;10545138;27;20136;-76
2024/01/18 11:13:03;;;;;;;0.50;0.50;;;;;;;;;;10549706;27;20112;-75
2024/01/18 11:18:11;;;;;;;0.20;0.20;;;;;;;;;;10541613;28;20056;-75
2024/01/18 11:23:15;;;;;;;0.70;0.60;;;;;;;;;;10540299;28;20051;-75
2024/01/18 11:28:22;;;;;;;0.73;0.73;;;;;;;;;;10548819;28;20039;-76
2024/01/18 11:33:26;;;;;;;0.40;0.40;;;;;;;;;;10545105;28;21379;-76
2024/01/18 11:38:31;;;;;;;0.60;0.50;;;;;;;;;;10543605;28;20518;-75
2024/01/18 11:43:49;;;;;;;0.50;0.50;;;;;;;;;;10543647;28;20052;-75
2024/01/18 11:48:54;;;;;;;0.60;0.60;;;;;;;;;;10539829;28;20051;-75
2024/01/18 11:53:59;;;;;;;0.55;0.55;;;;;;;;;;10550789;27;20481;-75
2024/01/18 11:59:02;;;;;;;1.92;0.40;;;;;;;;;;10539598;27;20473;-75
2024/01/18 12:04:09;;;;;;;0.30;0.30;;;;;;;;;;10539759;28;20039;-75
2024/01/18 12:09:12;;;;;;;1.40;0.60;;;;;;;;;;10539241;28;20177;-74
2024/01/18 12:14:14;;;;;;;0.73;0.40;;;;;;;;;;10524554;28;20460;-75
2024/01/18 12:19:31;;;;;;;0.20;0.15;;;;;;;;;;10517637;28;20131;-74
2024/01/18 12:24:35;;;;;;;0.40;0.38;;;;;;;;;;10543769;27;20035;-74
2024/01/18 12:29:38;;;;;;;0.50;0.40;;;;;;;;;;10544854;27;20462;-76
2024/01/18 12:34:43;;;;;;;0.52;0.30;;;;;;;;;;10538471;28;20309;-75
2024/01/18 12:39:46;;;;;;;0.15;0.15;;;;;;;;;;10537491;28;20054;-75
2024/01/18 12:44:51;;;;;;;1.00;0.50;;;;;;;;;;10539931;28;20028;-76
2024/01/18 12:49:56;;;;;;;0.80;0.50;;;;;;;;;;10545963;28;20051;-76
2024/01/18 12:54:59;;;;;;;0.20;0.20;;;;;;;;;;10543353;28;20044;-75
2024/01/18 13:00:04;;;;;;;0.10;0.10;;;;;;;;;;10549037;28;20318;-74
2024/01/18 13:05:12;;;;;;;0.20;0.15;;;;;;;;;;10539709;28;22322;-74
2024/01/18 13:10:15;;;;;;;0.25;0.20;;;;;;;;;;10536852;28;20582;-74
2024/01/18 13:15:18;;;;;;;0.15;0.15;;;;;;;;;;10549932;27;20048;-75
2024/01/18 13:20:23;;;;;;;0.57;0.40;;;;;;;;;;10548836;27;20085;-74
2024/01/18 13:25:26;;;;;;;0.28;0.28;;;;;;;;;;10551442;27;20059;-75
2024/01/18 13:30:28;;;;;;;0.30;0.20;;;;;;;;;;10554917;27;20035;-75
2024/01/18 13:35:32;;;;;;;0.28;0.28;;;;;;;;;;10552428;27;20046;-75
2024/01/18 13:40:36;;;;;;;0.60;0.20;;;;;;;;;;10553431;28;20044;-75
2024/01/18 13:45:38;;;;;;;0.10;0.10;;;;;;;;;;10541369;28;20123;-75
2024/01/18 13:50:44;;;;;;;0.33;0.23;;;;;;;;;;10557044;27;20051;-74
2024/01/18 13:55:47;;;;;;;0.20;0.20;;;;;;;;;;10547527;28;20305;-74
2024/01/18 14:00:50;;;;;;;0.45;0.25;;;;;;;;;;10553884;27;20128;-75
2024/01/18 14:05:54;;;;;;;0.17;0.17;;;;;;;;;;10548164;27;20035;-75
2024/01/18 14:10:57;;;;;;;2.42;0.22;;;;;;;;;;10548989;27;20047;-75
2024/01/18 14:16:00;;;;;;;0.10;0.10;;;;;;;;;;10545589;27;20130;-75
2024/01/18 14:21:04;;;;;;;0.30;0.30;;;;;;;;;;10551217;27;20047;-73
2024/01/18 14:26:07;;;;;;;0.60;0.43;;;;;;;;;;10549251;28;20127;-74
2024/01/18 14:31:11;;;;;;;0.73;0.50;;;;;;;;;;10546413;27;22584;-75
2024/01/18 14:36:15;;;;;;;0.60;0.60;;;;;;;;;;10549500;27;20039;-74
2024/01/18 14:41:18;;;;;;;1.30;0.50;;;;;;;;;;10555145;28;20047;-74
2024/01/18 14:46:21;;;;;;;0.70;0.60;;;;;;;;;;10551815;27;20448;-74
2024/01/18 14:51:26;;;;;;;0.63;0.40;;;;;;;;;;10556049;28;20131;-75
2024/01/18 14:56:29;;;;;;;0.98;0.38;;;;;;;;;;10546159;27;20055;-75
2024/01/18 15:01:31;;;;;;;0.30;0.30;;;;;;;;;;10546239;27;20570;-74
2024/01/18 15:06:36;;;;;;;0.77;0.28;;;;;;;;;;10551173;27;20395;-74
2024/01/18 15:11:39;;;;;;;0.40;0.40;;;;;;;;;;10550734;28;20124;-74
2024/01/18 15:16:41;;;;;;;0.38;0.38;;;;;;;;;;10547930;28;20164;-73
2024/01/18 15:21:46;;;;;;;0.40;0.40;;;;;;;;;;10555026;27;20139;-74
2024/01/18 15:26:49;;;;;;;0.43;0.40;;;;;;;;;;10546902;27;20543;-75
2024/01/18 15:31:52;;;;;;;0.40;0.40;;;;;;;;;;10547409;27;20062;-75
2024/01/18 15:36:56;;;;;;;0.45;0.30;;;;;;;;;;10546045;27;20096;-74
2024/01/18 15:41:59;;;;;;;0.10;0.10;;;;;;;;;;10548314;27;20119;-75
2024/01/18 15:47:04;;;;;;;0.60;0.40;;;;;;;;;;10530115;28;20039;-75
2024/01/18 15:52:09;;;;;;;0.30;0.30;;;;;;;;;;10549924;28;20031;-75
2024/01/18 15:57:13;;;;;;;0.57;0.55;;;;;;;;;;10549736;27;20040;-75
2024/01/18 16:02:15;;;;;;;;;;;;;;;;;;10547360;27;20046;-74
2024/01/18 16:07:19;;;;;;;0.40;0.40;;;;;;;;;;10544020;28;19928;-74
2024/01/18 16:12:23;;;;;;;1.48;0.82;;;;;;;;;;10539719;27;20161;-74
2024/01/18 16:17:25;;;;;;;1.50;1.30;;;;;;;;;;10542394;28;20043;-74
2024/01/18 16:22:29;;;;;;;1.27;1.13;;;;;;;;;;10545041;27;20482;-74
2024/01/18 16:27:32;;;;;;;1.25;1.15;;;;;;;;;;10546048;28;20142;-75
2024/01/18 16:32:35;;;;;;;1.48;1.30;;;;;;;;;;10551138;27;20335;-74
2024/01/18 16:37:39;;;;;;;3.60;1.83;;;;;;;;;;10550095;28;20039;-74
2024/01/18 16:42:42;;;;;;;;;;;;;;;;;;10542861;28;20047;-74
2024/01/18 16:47:45;;;;;;;1.30;1.17;;;;;;;;;;10536532;27;19920;-74
2024/01/18 16:52:50;;;;;;;2.50;2.10;;;;;;;;;;10549262;28;20480;-75
2024/01/18 16:57:53;;;;;;;3.95;2.05;;;;;;;;;;10549865;28;20230;-75
2024/01/18 17:02:56;;;;;;;4.43;3.03;;;;;;;;;;10551080;28;20486;-74
2024/01/18 17:08:01;;;;;;;4.47;2.50;;;;;;;;;;10543764;28;20108;-74
2024/01/18 17:13:04;;;;;;;2.33;1.63;;;;;;;;;;10544557;28;20035;-75
2024/01/18 17:18:07;;;;;;;5.30;3.33;;;;;;;;;;10543536;28;20043;-75
2024/01/18 17:23:12;;;;;;;6.45;2.65;;;;;;;;;;10544208;28;20044;-74
2024/01/18 17:28:15;;;;;;;5.35;2.38;;;;;;;;;;10541732;28;20505;-74
2024/01/18 17:33:18;;;;;;;8.40;3.87;;;;;;;;;;10525356;28;20067;-75
2024/01/18 17:38:22;;;;;;;4.00;2.45;;;;;;;;;;10540757;28;20048;-74
2024/01/18 17:43:25;;;;;;;4.25;2.60;;;;;;;;;;10543927;28;20134;-73
2024/01/18 17:48:28;;;;;;;5.90;3.13;;;;;;;;;;10540489;28;20047;-75
2024/01/18 17:53:32;;;;;;;5.90;3.05;;;;;;;;;;10547474;28;20163;-74
2024/01/18 17:58:35;;;;;;;8.25;3.95;;;;;;;;;;10546144;28;20047;-74
2024/01/18 18:03:38;;;;;;;6.13;3.47;;;;;;;;;;10546922;27;20043;-74
2024/01/18 18:08:43;;;;;;;4.70;2.77;;;;;;;;;;10546258;27;20644;-75
2024/01/18 18:13:45;;;;;;;6.97;3.83;;;;;;;;;;10548340;27;20670;-74
2024/01/18 18:18:49;;;;;;;7.88;3.30;;;;;;;;;;10550893;27;20058;-75
2024/01/18 18:23:53;;;;;;;7.47;3.47;;;;;;;;;;10546365;27;20055;-76
2024/01/18 18:28:56;;;;;;;7.07;3.13;;;;;;;;;;10552567;27;20048;-75
2024/01/18 18:33:58;;;;;;;8.98;3.92;;;;;;;;;;10549204;27;20531;-74
2024/01/18 18:39:19;;;;;;;7.80;3.58;;;;;;;;;;10550800;28;20519;-74
2024/01/18 18:44:21;;;;;;;5.97;3.53;;;;;;;;;;10545459;28;20067;-74
2024/01/18 18:49:24;;;;;;;6.45;3.53;;;;;;;;;;10549455;28;20462;-75
2024/01/18 18:54:29;;;;;;;6.68;3.38;;;;;;;;;;10544787;28;20032;-75
2024/01/18 18:59:31;;;;;;;7.53;3.72;;;;;;;;;;10549589;27;20051;-75
2024/01/18 19:04:42;;;;;;;5.07;3.60;;;;;;;;;;10547425;27;20048;-74
2024/01/18 19:09:46;;;;;;;7.93;3.47;;;;;;;;;;10538797;27;20043;-75
2024/01/18 19:14:48;;;;;;;7.80;4.18;;;;;;;;;;10538513;27;20046;-76
2024/01/18 19:19:51;;;;;;;10.82;4.88;;;;;;;;;;10546367;27;20063;-74
2024/01/18 19:24:58;;;;;;;6.22;3.75;;;;;;;;;;10543856;27;20050;-74
2024/01/18 19:30:01;;;;;;;5.68;2.78;;;;;;;;;;10549230;27;20127;-74
2024/01/18 19:35:04;;;;;;;6.75;3.13;;;;;;;;;;10547879;27;20062;-74
2024/01/18 19:40:09;;;;;;;8.43;3.28;;;;;;;;;;10545262;28;20524;-74
2024/01/18 19:45:12;;;;;;;6.03;3.20;;;;;;;;;;10541936;27;20588;-74
2024/01/18 19:50:14;;;;;;;7.30;3.60;;;;;;;;;;10538265;27;20047;-73
2024/01/18 19:55:18;;;;;;;8.43;3.22;;;;;;;;;;10543050;27;20040;-74
2024/01/18 20:00:22;;;;;;;11.77;4.90;;;;;;;;;;10541860;27;20357;-74
2024/01/18 20:05:25;;;;;;;8.17;3.87;;;;;;;;;;10543865;27;20678;-74
2024/01/18 20:10:29;;;;;;;6.17;3.43;;;;;;;;;;10538281;28;20063;-74
2024/01/18 20:15:32;;;;;;;8.25;3.70;;;;;;;;;;10536287;28;20492;-74
2024/01/18 20:20:34;;;;;;;4.50;2.80;;;;;;;;;;10539794;27;20044;-74
2024/01/18 20:25:38;;;;;;;7.55;3.95;;;;;;;;;;10543411;28;20468;-75
2024/01/18 20:30:42;;;;;;;7.77;3.57;;;;;;;;;;10548058;27;20059;-74
2024/01/18 20:35:45;;;;;;;8.23;4.20;;;;;;;;;;10565545;27;20043;-75
2024/01/18 20:40:49;;;;;;;12.77;5.35;;;;;;;;;;10564933;28;20039;-75
2024/01/18 20:45:51;;;;;;;8.07;3.92;;;;;;;;;;10562823;28;20179;-74
2024/01/18 20:50:54;;;;;;;4.90;2.75;;;;;;;;;;10566592;28;20041;-75
2024/01/18 20:55:58;;;;;;;10.45;4.47;;;;;;;;;;10564003;28;20103;-75
2024/01/18 21:01:02;;;;;;;9.73;4.22;;;;;;;;;;10561354;28;20134;-76
2024/01/18 21:06:05;;;;;;;10.93;4.97;;;;;;;;;;10562188;28;20461;-75
2024/01/18 21:11:10;;;;;;;7.57;3.20;;;;;;;;;;10557866;28;20127;-74
2024/01/18 21:16:12;;;;;;;11.20;4.43;;;;;;;;;;10562736;28;20084;-74
2024/01/18 21:21:15;;;;;;;10.90;4.13;;;;;;;;;;10566661;28;20128;-73
2024/01/18 21:26:19;;;;;;;10.00;4.53;;;;;;;;;;10562342;28;20393;-75
2024/01/18 21:31:22;;;;;;;13.07;4.47;;;;;;;;;;10564824;28;20097;-74
2024/01/18 21:36:25;;;;;;;10.63;4.77;;;;;;;;;;10566617;28;20032;-74
2024/01/18 21:41:29;;;;;;;12.10;4.10;;;;;;;;;;10571730;27;20138;-74
2024/01/18 21:46:32;;;;;;;11.60;4.82;;;;;;;;;;10568223;27;20537;-75
2024/01/18 21:51:34;;;;;;;9.63;3.80;;;;;;;;;;10571469;27;20085;-73
2024/01/18 21:56:38;;;;;;;11.23;4.73;;;;;;;;;;10554281;27;20039;-75
2024/01/18 22:01:41;;;;;;;;;;;;;;;;;;10560910;27;20509;-75
2024/01/18 22:06:44;;;;;;;8.63;4.07;;;;;;;;;;10558004;27;19920;-75
2024/01/18 22:11:49;;;;;;;9.70;4.70;;;;;;;;;;10548767;27;20204;-75
2024/01/18 22:16:52;;;;;;;11.67;4.50;;;;;;;;;;10555068;28;20112;-75
2024/01/18 22:21:54;;;;;;;8.80;4.23;;;;;;;;;;10549464;27;20504;-75
2024/01/18 22:26:58;;;;;;;9.23;4.13;;;;;;;;;;10550584;27;20043;-73
2024/01/18 22:32:01;;;;;;;15.30;4.97;;;;;;;;;;10553084;27;20136;-76
2024/01/18 22:37:04;;;;;;;10.67;4.57;;;;;;;;;;10552053;27;20470;-75
2024/01/18 22:42:08;;;;;;;10.40;4.00;;;;;;;;;;10552816;27;20040;-75
2024/01/18 22:47:11;;;;;;;;;;;;;;;;;;10548801;28;20119;-75
2024/01/18 22:52:13;;;;;;;8.00;3.53;;;;;;;;;;10552827;27;19934;-74
2024/01/18 22:57:17;;;;;;;5.93;2.73;;;;;;;;;;10547543;27;20437;-74
2024/01/18 23:02:23;;;;;;;9.53;4.10;;;;;;;;;;10552786;27;20081;-75
2024/01/18 23:07:26;;;;;;;8.77;3.40;;;;;;;;;;10555196;27;20050;-76
2024/01/18 23:12:30;;;;;;;9.00;3.60;;;;;;;;;;10551890;28;20130;-73
2024/01/18 23:17:32;;;;;;;4.85;2.28;;;;;;;;;;10535442;27;20140;-75
2024/01/18 23:22:35;;;;;;;7.67;3.43;;;;;;;;;;10550196;27;20039;-75
2024/01/18 23:27:39;;;;;;;8.37;3.63;;;;;;;;;;10554474;27;20047;-75
2024/01/18 23:32:42;;;;;;;7.50;2.80;;;;;;;;;;10547007;28;20469;-75
2024/01/18 23:37:45;;;;;;;8.43;3.30;;;;;;;;;;10551090;27;20031;-75
2024/01/18 23:42:49;;;;;;;6.37;2.90;;;;;;;;;;10543379;27;20075;-75
2024/01/18 23:47:52;;;;;;;7.15;2.75;;;;;;;;;;10540495;28;20384;-76
2024/01/18 23:52:54;;;;;;;6.57;2.70;;;;;;;;;;10550507;27;20043;-76
2024/01/18 23:57:58;;;;;;;7.53;3.37;;;;;;;;;;10540167;28;20077;-76
